sensor_id;sensor_type;location;lat;lon;timestamp;P1;durP1;ratioP1;P2;durP2;ratioP2
22646;SDS011;11490;42.726;23.268;2023-02-01T00:01:17;6.88;;;4.43;;
22646;SDS011;11490;42.726;23.268;2023-02-01T00:03:43;6.55;;;4.85;;
22646;SDS011;11490;42.726;23.268;2023-02-01T00:06:09;7.63;;;6.53;;
22646;SDS011;11490;42.726;23.268;2023-02-01T00:08:34;14.35;;;10.05;;
22646;SDS011;11490;42.726;23.268;2023-02-01T00:13:30;6.13;;;5.47;;
22646;SDS011;11490;42.726;23.268;2023-02-01T00:18:33;6.38;;;5.88;;
22646;SDS011;11490;42.726;23.268;2023-02-01T00:20:59;5.40;;;4.90;;
22646;SDS011;11490;42.726;23.268;2023-02-01T00:23:25;5.07;;;4.50;;
22646;SDS011;11490;42.726;23.268;2023-02-01T00:25:51;5.20;;;4.57;;
22646;SDS011;11490;42.726;23.268;2023-02-01T00:28:16;5.40;;;4.90;;
22646;SDS011;11490;42.726;23.268;2023-02-01T00:30:42;4.38;;;3.60;;
22646;SDS011;11490;42.726;23.268;2023-02-01T00:33:07;5.30;;;4.80;;
22646;SDS011;11490;42.726;23.268;2023-02-01T00:35:33;6.25;;;5.18;;
22646;SDS011;11490;42.726;23.268;2023-02-01T00:37:59;5.00;;;4.50;;
22646;SDS011;11490;42.726;23.268;2023-02-01T00:40:25;5.40;;;4.57;;
22646;SDS011;11490;42.726;23.268;2023-02-01T00:42:51;5.95;;;4.57;;
22646;SDS011;11490;42.726;23.268;2023-02-01T00:45:17;4.18;;;3.85;;
22646;SDS011;11490;42.726;23.268;2023-02-01T00:47:42;4.50;;;4.07;;
22646;SDS011;11490;42.726;23.268;2023-02-01T00:50:08;4.63;;;4.07;;
22646;SDS011;11490;42.726;23.268;2023-02-01T00:52:33;4.60;;;4.20;;
22646;SDS011;11490;42.726;23.268;2023-02-01T00:54:59;5.43;;;4.70;;
22646;SDS011;11490;42.726;23.268;2023-02-01T00:57:24;4.93;;;4.23;;
22646;SDS011;11490;42.726;23.268;2023-02-01T00:59:49;4.43;;;4.03;;
22646;SDS011;11490;42.726;23.268;2023-02-01T01:02:15;5.03;;;4.63;;
22646;SDS011;11490;42.726;23.268;2023-02-01T01:04:40;5.90;;;4.70;;
22646;SDS011;11490;42.726;23.268;2023-02-01T01:07:06;4.05;;;3.60;;
22646;SDS011;11490;42.726;23.268;2023-02-01T01:09:31;4.40;;;4.00;;
22646;SDS011;11490;42.726;23.268;2023-02-01T01:11:57;3.75;;;3.45;;
22646;SDS011;11490;42.726;23.268;2023-02-01T01:14:27;4.28;;;3.75;;
22646;SDS011;11490;42.726;23.268;2023-02-01T01:16:55;4.55;;;4.15;;
22646;SDS011;11490;42.726;23.268;2023-02-01T01:19:20;5.00;;;4.60;;
22646;SDS011;11490;42.726;23.268;2023-02-01T01:21:46;4.13;;;3.80;;
22646;SDS011;11490;42.726;23.268;2023-02-01T01:24:11;3.78;;;3.47;;
22646;SDS011;11490;42.726;23.268;2023-02-01T01:26:37;4.77;;;4.03;;
22646;SDS011;11490;42.726;23.268;2023-02-01T01:29:02;4.55;;;4.22;;
22646;SDS011;11490;42.726;23.268;2023-02-01T01:31:29;4.22;;;3.83;;
22646;SDS011;11490;42.726;23.268;2023-02-01T01:33:56;4.03;;;3.72;;
22646;SDS011;11490;42.726;23.268;2023-02-01T01:36:24;4.78;;;4.35;;
22646;SDS011;11490;42.726;23.268;2023-02-01T01:38:50;3.90;;;3.60;;
22646;SDS011;11490;42.726;23.268;2023-02-01T01:41:17;3.80;;;3.50;;
22646;SDS011;11490;42.726;23.268;2023-02-01T01:43:54;3.60;;;3.30;;
22646;SDS011;11490;42.726;23.268;2023-02-01T01:46:22;4.57;;;3.95;;
22646;SDS011;11490;42.726;23.268;2023-02-01T01:48:52;6.72;;;4.50;;
22646;SDS011;11490;42.726;23.268;2023-02-01T01:51:23;4.85;;;4.32;;
22646;SDS011;11490;42.726;23.268;2023-02-01T01:53:53;6.70;;;4.53;;
22646;SDS011;11490;42.726;23.268;2023-02-01T01:56:24;4.47;;;4.00;;
22646;SDS011;11490;42.726;23.268;2023-02-01T01:58:51;10.25;;;5.18;;
22646;SDS011;11490;42.726;23.268;2023-02-01T02:01:17;9.73;;;6.07;;
22646;SDS011;11490;42.726;23.268;2023-02-01T02:03:43;5.50;;;4.97;;
22646;SDS011;11490;42.726;23.268;2023-02-01T02:08:54;6.27;;;4.50;;
22646;SDS011;11490;42.726;23.268;2023-02-01T02:11:20;5.45;;;3.90;;
22646;SDS011;11490;42.726;23.268;2023-02-01T02:13:46;4.13;;;3.72;;
22646;SDS011;11490;42.726;23.268;2023-02-01T02:19:45;4.47;;;3.80;;
22646;SDS011;11490;42.726;23.268;2023-02-01T02:39:13;3.80;;;3.50;;
22646;SDS011;11490;42.726;23.268;2023-02-01T02:45:01;4.55;;;4.15;;
22646;SDS011;11490;42.726;23.268;2023-02-01T02:50:27;4.30;;;3.70;;
22646;SDS011;11490;42.726;23.268;2023-02-01T02:53:17;3.17;;;2.97;;
22646;SDS011;11490;42.726;23.268;2023-02-01T02:56:08;3.80;;;3.50;;
22646;SDS011;11490;42.726;23.268;2023-02-01T02:58:54;5.88;;;3.38;;
22646;SDS011;11490;42.726;23.268;2023-02-01T03:01:39;3.75;;;3.40;;
22646;SDS011;11490;42.726;23.268;2023-02-01T03:04:24;3.92;;;3.63;;
22646;SDS011;11490;42.726;23.268;2023-02-01T03:06:51;4.17;;;3.87;;
22646;SDS011;11490;42.726;23.268;2023-02-01T03:11:56;4.00;;;3.40;;
22646;SDS011;11490;42.726;23.268;2023-02-01T03:14:57;5.37;;;4.10;;
22646;SDS011;11490;42.726;23.268;2023-02-01T03:17:27;4.73;;;4.30;;
22646;SDS011;11490;42.726;23.268;2023-02-01T03:19:58;4.53;;;4.13;;
22646;SDS011;11490;42.726;23.268;2023-02-01T03:22:27;4.77;;;3.80;;
22646;SDS011;11490;42.726;23.268;2023-02-01T03:24:59;4.73;;;4.03;;
22646;SDS011;11490;42.726;23.268;2023-02-01T03:27:32;3.00;;;2.80;;
22646;SDS011;11490;42.726;23.268;2023-02-01T03:32:44;3.53;;;3.25;;
22646;SDS011;11490;42.726;23.268;2023-02-01T03:40:55;4.00;;;3.67;;
22646;SDS011;11490;42.726;23.268;2023-02-01T03:43:27;3.70;;;3.40;;
22646;SDS011;11490;42.726;23.268;2023-02-01T03:46:00;4.00;;;3.70;;
22646;SDS011;11490;42.726;23.268;2023-02-01T03:48:31;5.45;;;4.00;;
22646;SDS011;11490;42.726;23.268;2023-02-01T03:50:58;4.60;;;4.20;;
22646;SDS011;11490;42.726;23.268;2023-02-01T03:53:26;4.20;;;3.80;;
22646;SDS011;11490;42.726;23.268;2023-02-01T03:55:53;4.93;;;4.43;;
22646;SDS011;11490;42.726;23.268;2023-02-01T03:58:21;3.75;;;3.45;;
22646;SDS011;11490;42.726;23.268;2023-02-01T04:00:58;3.90;;;3.60;;
22646;SDS011;11490;42.726;23.268;2023-02-01T04:03:25;4.03;;;3.73;;
22646;SDS011;11490;42.726;23.268;2023-02-01T04:05:52;3.88;;;3.55;;
22646;SDS011;11490;42.726;23.268;2023-02-01T04:08:18;4.25;;;3.90;;
22646;SDS011;11490;42.726;23.268;2023-02-01T04:10:45;4.57;;;3.33;;
22646;SDS011;11490;42.726;23.268;2023-02-01T04:13:10;4.60;;;4.30;;
22646;SDS011;11490;42.726;23.268;2023-02-01T04:15:36;5.85;;;3.70;;
22646;SDS011;11490;42.726;23.268;2023-02-01T04:18:02;6.17;;;4.60;;
22646;SDS011;11490;42.726;23.268;2023-02-01T04:20:27;4.70;;;4.30;;
22646;SDS011;11490;42.726;23.268;2023-02-01T04:22:53;5.63;;;3.63;;
22646;SDS011;11490;42.726;23.268;2023-02-01T04:25:18;4.57;;;3.90;;
22646;SDS011;11490;42.726;23.268;2023-02-01T04:27:44;3.55;;;3.25;;
22646;SDS011;11490;42.726;23.268;2023-02-01T04:30:10;7.27;;;5.37;;
22646;SDS011;11490;42.726;23.268;2023-02-01T04:32:37;6.18;;;4.45;;
22646;SDS011;11490;42.726;23.268;2023-02-01T04:35:03;3.43;;;3.13;;
22646;SDS011;11490;42.726;23.268;2023-02-01T04:37:28;4.77;;;4.27;;
22646;SDS011;11490;42.726;23.268;2023-02-01T04:39:54;4.30;;;3.90;;
22646;SDS011;11490;42.726;23.268;2023-02-01T04:42:20;4.13;;;3.83;;
22646;SDS011;11490;42.726;23.268;2023-02-01T04:44:45;4.67;;;3.57;;
22646;SDS011;11490;42.726;23.268;2023-02-01T04:47:10;6.70;;;4.17;;
22646;SDS011;11490;42.726;23.268;2023-02-01T04:49:36;4.97;;;4.57;;
22646;SDS011;11490;42.726;23.268;2023-02-01T04:52:01;3.83;;;3.45;;
22646;SDS011;11490;42.726;23.268;2023-02-01T04:54:27;5.03;;;4.20;;
22646;SDS011;11490;42.726;23.268;2023-02-01T04:56:52;4.53;;;4.13;;
22646;SDS011;11490;42.726;23.268;2023-02-01T04:59:18;5.37;;;4.87;;
22646;SDS011;11490;42.726;23.268;2023-02-01T05:01:43;4.33;;;3.83;;
22646;SDS011;11490;42.726;23.268;2023-02-01T05:04:08;10.70;;;5.33;;
22646;SDS011;11490;42.726;23.268;2023-02-01T05:06:34;5.60;;;4.38;;
22646;SDS011;11490;42.726;23.268;2023-02-01T05:08:59;5.97;;;4.70;;
22646;SDS011;11490;42.726;23.268;2023-02-01T05:11:24;7.63;;;3.80;;
22646;SDS011;11490;42.726;23.268;2023-02-01T05:14:08;9.85;;;5.10;;
22646;SDS011;11490;42.726;23.268;2023-02-01T05:16:34;4.60;;;4.28;;
22646;SDS011;11490;42.726;23.268;2023-02-01T05:18:59;7.13;;;4.70;;
22646;SDS011;11490;42.726;23.268;2023-02-01T05:21:24;4.63;;;4.23;;
22646;SDS011;11490;42.726;23.268;2023-02-01T05:23:50;8.93;;;4.53;;
22646;SDS011;11490;42.726;23.268;2023-02-01T05:26:34;5.10;;;4.60;;
22646;SDS011;11490;42.726;23.268;2023-02-01T05:29:00;7.97;;;4.80;;
22646;SDS011;11490;42.726;23.268;2023-02-01T05:31:26;4.60;;;4.20;;
22646;SDS011;11490;42.726;23.268;2023-02-01T05:33:51;5.23;;;4.17;;
22646;SDS011;11490;42.726;23.268;2023-02-01T05:36:16;6.50;;;4.93;;
22646;SDS011;11490;42.726;23.268;2023-02-01T05:38:42;5.37;;;4.87;;
22646;SDS011;11490;42.726;23.268;2023-02-01T05:41:08;8.10;;;5.28;;
22646;SDS011;11490;42.726;23.268;2023-02-01T05:43:33;6.03;;;5.05;;
22646;SDS011;11490;42.726;23.268;2023-02-01T05:45:59;6.68;;;5.20;;
22646;SDS011;11490;42.726;23.268;2023-02-01T05:48:24;6.00;;;4.60;;
22646;SDS011;11490;42.726;23.268;2023-02-01T05:50:50;5.00;;;4.55;;
22646;SDS011;11490;42.726;23.268;2023-02-01T05:53:15;6.57;;;4.53;;
22646;SDS011;11490;42.726;23.268;2023-02-01T05:55:41;6.90;;;5.83;;
22646;SDS011;11490;42.726;23.268;2023-02-01T05:58:06;6.93;;;5.30;;
22646;SDS011;11490;42.726;23.268;2023-02-01T06:00:32;6.57;;;5.05;;
22646;SDS011;11490;42.726;23.268;2023-02-01T06:02:57;6.20;;;4.73;;
22646;SDS011;11490;42.726;23.268;2023-02-01T06:05:23;8.17;;;6.80;;
22646;SDS011;11490;42.726;23.268;2023-02-01T06:07:48;5.32;;;4.70;;
22646;SDS011;11490;42.726;23.268;2023-02-01T06:10:15;4.63;;;4.20;;
22646;SDS011;11490;42.726;23.268;2023-02-01T06:12:41;4.10;;;3.70;;
22646;SDS011;11490;42.726;23.268;2023-02-01T06:15:07;5.20;;;4.20;;
22646;SDS011;11490;42.726;23.268;2023-02-01T06:17:33;4.47;;;3.95;;
22646;SDS011;11490;42.726;23.268;2023-02-01T06:19:59;4.95;;;4.35;;
22646;SDS011;11490;42.726;23.268;2023-02-01T06:22:24;5.10;;;4.50;;
22646;SDS011;11490;42.726;23.268;2023-02-01T06:25:05;4.82;;;4.32;;
22646;SDS011;11490;42.726;23.268;2023-02-01T06:27:32;4.93;;;4.43;;
22646;SDS011;11490;42.726;23.268;2023-02-01T06:29:58;4.38;;;3.92;;
22646;SDS011;11490;42.726;23.268;2023-02-01T06:32:24;5.07;;;4.53;;
22646;SDS011;11490;42.726;23.268;2023-02-01T06:34:49;5.55;;;4.50;;
22646;SDS011;11490;42.726;23.268;2023-02-01T06:37:15;5.38;;;4.30;;
22646;SDS011;11490;42.726;23.268;2023-02-01T06:39:40;5.50;;;4.53;;
22646;SDS011;11490;42.726;23.268;2023-02-01T06:42:06;5.80;;;4.43;;
22646;SDS011;11490;42.726;23.268;2023-02-01T06:44:31;4.38;;;3.97;;
22646;SDS011;11490;42.726;23.268;2023-02-01T06:46:57;5.07;;;4.50;;
22646;SDS011;11490;42.726;23.268;2023-02-01T06:49:22;4.70;;;4.32;;
22646;SDS011;11490;42.726;23.268;2023-02-01T06:51:48;5.50;;;3.95;;
22646;SDS011;11490;42.726;23.268;2023-02-01T06:54:13;5.13;;;4.10;;
22646;SDS011;11490;42.726;23.268;2023-02-01T06:56:41;4.70;;;3.97;;
22646;SDS011;11490;42.726;23.268;2023-02-01T06:59:07;3.80;;;3.40;;
22646;SDS011;11490;42.726;23.268;2023-02-01T07:01:33;5.75;;;3.78;;
22646;SDS011;11490;42.726;23.268;2023-02-01T07:03:59;7.75;;;4.15;;
22646;SDS011;11490;42.726;23.268;2023-02-01T07:06:24;4.15;;;3.75;;
22646;SDS011;11490;42.726;23.268;2023-02-01T07:08:50;3.37;;;3.10;;
22646;SDS011;11490;42.726;23.268;2023-02-01T07:11:16;5.90;;;4.13;;
22646;SDS011;11490;42.726;23.268;2023-02-01T07:13:43;5.57;;;4.95;;
22646;SDS011;11490;42.726;23.268;2023-02-01T07:16:10;3.63;;;3.38;;
22646;SDS011;11490;42.726;23.268;2023-02-01T07:18:36;6.45;;;4.43;;
22646;SDS011;11490;42.726;23.268;2023-02-01T07:21:11;5.33;;;4.23;;
22646;SDS011;11490;42.726;23.268;2023-02-01T07:23:39;8.55;;;4.35;;
22646;SDS011;11490;42.726;23.268;2023-02-01T07:26:05;6.13;;;3.88;;
22646;SDS011;11490;42.726;23.268;2023-02-01T07:28:32;5.63;;;4.05;;
22646;SDS011;11490;42.726;23.268;2023-02-01T07:36:59;4.88;;;3.75;;
22646;SDS011;11490;42.726;23.268;2023-02-01T07:39:25;5.38;;;4.20;;
22646;SDS011;11490;42.726;23.268;2023-02-01T07:41:53;4.70;;;3.95;;
22646;SDS011;11490;42.726;23.268;2023-02-01T07:44:18;4.65;;;4.28;;
22646;SDS011;11490;42.726;23.268;2023-02-01T07:46:47;4.97;;;4.57;;
22646;SDS011;11490;42.726;23.268;2023-02-01T07:49:13;6.07;;;4.60;;
22646;SDS011;11490;42.726;23.268;2023-02-01T07:51:38;6.72;;;4.50;;
22646;SDS011;11490;42.726;23.268;2023-02-01T07:54:04;5.50;;;4.65;;
22646;SDS011;11490;42.726;23.268;2023-02-01T07:56:29;5.20;;;4.13;;
22646;SDS011;11490;42.726;23.268;2023-02-01T07:58:55;8.73;;;3.60;;
22646;SDS011;11490;42.726;23.268;2023-02-01T08:01:21;6.30;;;4.72;;
22646;SDS011;11490;42.726;23.268;2023-02-01T08:03:53;4.25;;;3.85;;
22646;SDS011;11490;42.726;23.268;2023-02-01T08:06:20;5.20;;;3.47;;
22646;SDS011;11490;42.726;23.268;2023-02-01T08:08:47;7.20;;;4.20;;
22646;SDS011;11490;42.726;23.268;2023-02-01T08:11:13;10.38;;;4.32;;
22646;SDS011;11490;42.726;23.268;2023-02-01T08:13:39;19.27;;;4.75;;
22646;SDS011;11490;42.726;23.268;2023-02-01T08:16:09;9.65;;;6.03;;
22646;SDS011;11490;42.726;23.268;2023-02-01T08:18:36;5.45;;;3.70;;
22646;SDS011;11490;42.726;23.268;2023-02-01T08:21:06;4.63;;;3.95;;
22646;SDS011;11490;42.726;23.268;2023-02-01T08:23:39;3.45;;;3.15;;
22646;SDS011;11490;42.726;23.268;2023-02-01T08:26:09;4.67;;;3.53;;
22646;SDS011;11490;42.726;23.268;2023-02-01T08:28:38;6.80;;;3.85;;
22646;SDS011;11490;42.726;23.268;2023-02-01T08:31:11;4.68;;;3.80;;
22646;SDS011;11490;42.726;23.268;2023-02-01T08:33:42;11.02;;;4.72;;
22646;SDS011;11490;42.726;23.268;2023-02-01T08:36:09;6.75;;;4.97;;
22646;SDS011;11490;42.726;23.268;2023-02-01T08:38:36;6.55;;;5.45;;
22646;SDS011;11490;42.726;23.268;2023-02-01T08:41:07;4.22;;;3.70;;
22646;SDS011;11490;42.726;23.268;2023-02-01T08:43:35;6.38;;;3.97;;
22646;SDS011;11490;42.726;23.268;2023-02-01T08:46:01;4.07;;;3.03;;
22646;SDS011;11490;42.726;23.268;2023-02-01T08:48:26;5.97;;;3.85;;
22646;SDS011;11490;42.726;23.268;2023-02-01T08:50:52;5.07;;;4.28;;
22646;SDS011;11490;42.726;23.268;2023-02-01T08:53:18;6.85;;;3.80;;
22646;SDS011;11490;42.726;23.268;2023-02-01T08:55:45;4.32;;;3.13;;
22646;SDS011;11490;42.726;23.268;2023-02-01T08:58:11;4.10;;;3.20;;
22646;SDS011;11490;42.726;23.268;2023-02-01T09:00:38;3.95;;;3.17;;
22646;SDS011;11490;42.726;23.268;2023-02-01T09:03:04;4.60;;;2.42;;
22646;SDS011;11490;42.726;23.268;2023-02-01T09:05:33;5.50;;;2.67;;
22646;SDS011;11490;42.726;23.268;2023-02-01T09:07:58;7.47;;;3.00;;
22646;SDS011;11490;42.726;23.268;2023-02-01T09:10:24;5.40;;;3.17;;
22646;SDS011;11490;42.726;23.268;2023-02-01T09:12:51;3.30;;;2.75;;
22646;SDS011;11490;42.726;23.268;2023-02-01T09:15:17;8.18;;;3.97;;
22646;SDS011;11490;42.726;23.268;2023-02-01T09:17:42;3.95;;;2.55;;
22646;SDS011;11490;42.726;23.268;2023-02-01T09:20:08;4.75;;;3.42;;
22646;SDS011;11490;42.726;23.268;2023-02-01T09:22:34;6.82;;;3.35;;
22646;SDS011;11490;42.726;23.268;2023-02-01T09:24:59;4.05;;;2.50;;
22646;SDS011;11490;42.726;23.268;2023-02-01T09:27:25;3.03;;;2.35;;
22646;SDS011;11490;42.726;23.268;2023-02-01T09:29:58;3.75;;;2.47;;
22646;SDS011;11490;42.726;23.268;2023-02-01T09:32:50;6.03;;;2.85;;
22646;SDS011;11490;42.726;23.268;2023-02-01T09:35:16;6.35;;;3.33;;
22646;SDS011;11490;42.726;23.268;2023-02-01T09:37:53;4.97;;;3.10;;
22646;SDS011;11490;42.726;23.268;2023-02-01T09:40:30;4.93;;;2.90;;
22646;SDS011;11490;42.726;23.268;2023-02-01T09:49:30;3.10;;;2.80;;
22646;SDS011;11490;42.726;23.268;2023-02-01T09:51:59;4.18;;;2.35;;
22646;SDS011;11490;42.726;23.268;2023-02-01T09:54:33;2.88;;;2.40;;
22646;SDS011;11490;42.726;23.268;2023-02-01T10:00:24;3.88;;;2.80;;
22646;SDS011;11490;42.726;23.268;2023-02-01T10:02:55;3.50;;;2.33;;
22646;SDS011;11490;42.726;23.268;2023-02-01T10:08:36;5.70;;;2.75;;
22646;SDS011;11490;42.726;23.268;2023-02-01T10:16:42;3.38;;;2.88;;
22646;SDS011;11490;42.726;23.268;2023-02-01T10:19:29;9.32;;;3.83;;
22646;SDS011;11490;42.726;23.268;2023-02-01T10:22:01;6.82;;;2.92;;
22646;SDS011;11490;42.726;23.268;2023-02-01T10:24:36;4.70;;;2.55;;
22646;SDS011;11490;42.726;23.268;2023-02-01T10:32:45;3.80;;;3.17;;
22646;SDS011;11490;42.726;23.268;2023-02-01T10:35:15;4.93;;;3.88;;
22646;SDS011;11490;42.726;23.268;2023-02-01T10:37:46;6.43;;;3.35;;
22646;SDS011;11490;42.726;23.268;2023-02-01T10:43:38;5.45;;;3.25;;
22646;SDS011;11490;42.726;23.268;2023-02-01T10:46:04;3.17;;;2.88;;
22646;SDS011;11490;42.726;23.268;2023-02-01T10:48:31;2.97;;;2.67;;
22646;SDS011;11490;42.726;23.268;2023-02-01T10:53:42;5.95;;;3.50;;
22646;SDS011;11490;42.726;23.268;2023-02-01T10:56:25;5.28;;;3.20;;
22646;SDS011;11490;42.726;23.268;2023-02-01T10:58:59;4.55;;;3.05;;
22646;SDS011;11490;42.726;23.268;2023-02-01T11:01:30;3.63;;;2.92;;
22646;SDS011;11490;42.726;23.268;2023-02-01T11:04:03;23.10;;;10.10;;
22646;SDS011;11490;42.726;23.268;2023-02-01T11:06:35;2.58;;;2.38;;
22646;SDS011;11490;42.726;23.268;2023-02-01T11:09:16;2.13;;;1.90;;
22646;SDS011;11490;42.726;23.268;2023-02-01T11:14:15;2.78;;;2.20;;
22646;SDS011;11490;42.726;23.268;2023-02-01T11:16:40;3.03;;;2.05;;
22646;SDS011;11490;42.726;23.268;2023-02-01T11:19:14;5.75;;;2.50;;
22646;SDS011;11490;42.726;23.268;2023-02-01T11:21:41;2.80;;;2.50;;
22646;SDS011;11490;42.726;23.268;2023-02-01T11:24:16;7.15;;;2.92;;
22646;SDS011;11490;42.726;23.268;2023-02-01T11:26:47;2.72;;;2.50;;
22646;SDS011;11490;42.726;23.268;2023-02-01T11:29:14;2.90;;;2.40;;
22646;SDS011;11490;42.726;23.268;2023-02-01T11:31:45;5.07;;;3.03;;
22646;SDS011;11490;42.726;23.268;2023-02-01T11:34:16;2.65;;;2.38;;
22646;SDS011;11490;42.726;23.268;2023-02-01T11:36:45;3.92;;;3.45;;
22646;SDS011;11490;42.726;23.268;2023-02-01T11:44:26;3.85;;;3.38;;
22646;SDS011;11490;42.726;23.268;2023-02-01T11:46:53;6.15;;;3.53;;
22646;SDS011;11490;42.726;23.268;2023-02-01T11:49:25;3.60;;;2.97;;
22646;SDS011;11490;42.726;23.268;2023-02-01T11:57:09;2.65;;;2.40;;
22646;SDS011;11490;42.726;23.268;2023-02-01T11:59:48;2.60;;;2.38;;
22646;SDS011;11490;42.726;23.268;2023-02-01T12:05:47;7.00;;;3.53;;
22646;SDS011;11490;42.726;23.268;2023-02-01T12:13:50;2.60;;;2.28;;
22646;SDS011;11490;42.726;23.268;2023-02-01T12:24:58;2.42;;;2.22;;
22646;SDS011;11490;42.726;23.268;2023-02-01T12:36:07;3.33;;;2.92;;
22646;SDS011;11490;42.726;23.268;2023-02-01T12:38:43;3.22;;;2.65;;
22646;SDS011;11490;42.726;23.268;2023-02-01T12:41:20;4.15;;;2.58;;
22646;SDS011;11490;42.726;23.268;2023-02-01T12:46:52;5.20;;;3.13;;
22646;SDS011;11490;42.726;23.268;2023-02-01T12:49:23;3.72;;;3.33;;
22646;SDS011;11490;42.726;23.268;2023-02-01T12:52:01;4.63;;;2.65;;
22646;SDS011;11490;42.726;23.268;2023-02-01T12:54:45;2.42;;;2.25;;
22646;SDS011;11490;42.726;23.268;2023-02-01T12:57:23;3.45;;;2.88;;
22646;SDS011;11490;42.726;23.268;2023-02-01T12:59:54;3.05;;;2.75;;
22646;SDS011;11490;42.726;23.268;2023-02-01T13:02:36;3.75;;;2.67;;
22646;SDS011;11490;42.726;23.268;2023-02-01T13:08:39;5.15;;;3.33;;
22646;SDS011;11490;42.726;23.268;2023-02-01T13:11:33;6.97;;;3.50;;
22646;SDS011;11490;42.726;23.268;2023-02-01T13:14:02;3.58;;;3.13;;
22646;SDS011;11490;42.726;23.268;2023-02-01T13:16:41;5.60;;;2.60;;
22646;SDS011;11490;42.726;23.268;2023-02-01T13:19:12;9.98;;;6.10;;
22646;SDS011;11490;42.726;23.268;2023-02-01T13:21:45;5.53;;;4.30;;
22646;SDS011;11490;42.726;23.268;2023-02-01T13:24:35;5.45;;;2.90;;
22646;SDS011;11490;42.726;23.268;2023-02-01T13:27:05;5.45;;;3.60;;
22646;SDS011;11490;42.726;23.268;2023-02-01T13:29:31;3.17;;;2.90;;
22646;SDS011;11490;42.726;23.268;2023-02-01T13:40:51;3.80;;;2.50;;
22646;SDS011;11490;42.726;23.268;2023-02-01T13:43:32;3.67;;;2.72;;
22646;SDS011;11490;42.726;23.268;2023-02-01T13:46:02;3.72;;;3.40;;
22646;SDS011;11490;42.726;23.268;2023-02-01T13:51:06;2.60;;;2.40;;
22646;SDS011;11490;42.726;23.268;2023-02-01T13:53:35;3.13;;;2.50;;
22646;SDS011;11490;42.726;23.268;2023-02-01T13:56:08;6.07;;;3.40;;
22646;SDS011;11490;42.726;23.268;2023-02-01T13:58:38;5.00;;;3.00;;
22646;SDS011;11490;42.726;23.268;2023-02-01T14:03:56;4.35;;;3.17;;
22646;SDS011;11490;42.726;23.268;2023-02-01T14:18:54;3.30;;;3.00;;
22646;SDS011;11490;42.726;23.268;2023-02-01T14:23:45;2.75;;;2.40;;
22646;SDS011;11490;42.726;23.268;2023-02-01T14:26:16;2.92;;;2.65;;
22646;SDS011;11490;42.726;23.268;2023-02-01T14:28:46;3.50;;;2.67;;
22646;SDS011;11490;42.726;23.268;2023-02-01T14:34:48;4.43;;;2.97;;
22646;SDS011;11490;42.726;23.268;2023-02-01T14:37:22;5.43;;;3.30;;
22646;SDS011;11490;42.726;23.268;2023-02-01T14:40:01;7.15;;;3.50;;
22646;SDS011;11490;42.726;23.268;2023-02-01T14:47:55;5.20;;;4.15;;
22646;SDS011;11490;42.726;23.268;2023-02-01T14:50:40;4.95;;;3.33;;
22646;SDS011;11490;42.726;23.268;2023-02-01T14:53:14;5.82;;;3.72;;
22646;SDS011;11490;42.726;23.268;2023-02-01T14:55:50;2.92;;;2.63;;
22646;SDS011;11490;42.726;23.268;2023-02-01T14:58:46;3.15;;;2.83;;
22646;SDS011;11490;42.726;23.268;2023-02-01T15:01:28;4.38;;;3.30;;
22646;SDS011;11490;42.726;23.268;2023-02-01T15:12:04;4.45;;;3.47;;
22646;SDS011;11490;42.726;23.268;2023-02-01T15:14:39;5.22;;;3.60;;
22646;SDS011;11490;42.726;23.268;2023-02-01T15:19:59;5.18;;;3.63;;
22646;SDS011;11490;42.726;23.268;2023-02-01T15:22:27;4.10;;;3.22;;
22646;SDS011;11490;42.726;23.268;2023-02-01T15:24:58;3.58;;;3.20;;
22646;SDS011;11490;42.726;23.268;2023-02-01T15:27:25;4.70;;;3.55;;
22646;SDS011;11490;42.726;23.268;2023-02-01T15:29:52;4.90;;;4.00;;
22646;SDS011;11490;42.726;23.268;2023-02-01T15:32:30;6.25;;;4.68;;
22646;SDS011;11490;42.726;23.268;2023-02-01T15:35:01;6.60;;;4.80;;
22646;SDS011;11490;42.726;23.268;2023-02-01T15:37:27;8.52;;;4.82;;
22646;SDS011;11490;42.726;23.268;2023-02-01T15:40:04;6.32;;;4.22;;
22646;SDS011;11490;42.726;23.268;2023-02-01T15:42:37;6.43;;;3.85;;
22646;SDS011;11490;42.726;23.268;2023-02-01T15:45:26;6.32;;;3.50;;
22646;SDS011;11490;42.726;23.268;2023-02-01T15:47:54;6.47;;;3.60;;
22646;SDS011;11490;42.726;23.268;2023-02-01T15:50:22;5.47;;;4.07;;
22646;SDS011;11490;42.726;23.268;2023-02-01T15:52:49;8.43;;;5.63;;
22646;SDS011;11490;42.726;23.268;2023-02-01T15:58:08;5.65;;;4.22;;
22646;SDS011;11490;42.726;23.268;2023-02-01T16:00:46;7.85;;;4.28;;
22646;SDS011;11490;42.726;23.268;2023-02-01T16:03:25;8.52;;;4.10;;
22646;SDS011;11490;42.726;23.268;2023-02-01T16:05:57;6.57;;;4.10;;
22646;SDS011;11490;42.726;23.268;2023-02-01T16:08:26;7.57;;;3.72;;
22646;SDS011;11490;42.726;23.268;2023-02-01T16:10:54;12.70;;;4.55;;
22646;SDS011;11490;42.726;23.268;2023-02-01T16:13:26;11.25;;;5.70;;
22646;SDS011;11490;42.726;23.268;2023-02-01T16:15:52;11.25;;;6.82;;
22646;SDS011;11490;42.726;23.268;2023-02-01T16:18:17;11.25;;;5.93;;
22646;SDS011;11490;42.726;23.268;2023-02-01T16:20:43;8.98;;;4.80;;
22646;SDS011;11490;42.726;23.268;2023-02-01T16:23:11;9.75;;;6.45;;
22646;SDS011;11490;42.726;23.268;2023-02-01T16:25:39;9.85;;;5.43;;
22646;SDS011;11490;42.726;23.268;2023-02-01T16:28:05;7.50;;;4.80;;
22646;SDS011;11490;42.726;23.268;2023-02-01T16:30:31;8.32;;;5.43;;
22646;SDS011;11490;42.726;23.268;2023-02-01T16:33:05;12.48;;;7.40;;
22646;SDS011;11490;42.726;23.268;2023-02-01T16:35:46;6.43;;;5.65;;
22646;SDS011;11490;42.726;23.268;2023-02-01T16:38:13;13.70;;;5.63;;
22646;SDS011;11490;42.726;23.268;2023-02-01T16:40:43;9.30;;;6.82;;
22646;SDS011;11490;42.726;23.268;2023-02-01T16:43:17;8.60;;;5.28;;
22646;SDS011;11490;42.726;23.268;2023-02-01T16:45:47;10.27;;;5.28;;
22646;SDS011;11490;42.726;23.268;2023-02-01T16:50:50;5.10;;;3.78;;
22646;SDS011;11490;42.726;23.268;2023-02-01T16:53:28;11.75;;;5.80;;
22646;SDS011;11490;42.726;23.268;2023-02-01T16:55:55;20.98;;;8.15;;
22646;SDS011;11490;42.726;23.268;2023-02-01T16:58:22;19.40;;;7.60;;
22646;SDS011;11490;42.726;23.268;2023-02-01T17:00:49;15.85;;;7.88;;
22646;SDS011;11490;42.726;23.268;2023-02-01T17:03:18;8.10;;;5.25;;
22646;SDS011;11490;42.726;23.268;2023-02-01T17:05:49;11.88;;;6.00;;
22646;SDS011;11490;42.726;23.268;2023-02-01T17:08:36;6.93;;;4.75;;
22646;SDS011;11490;42.726;23.268;2023-02-01T17:11:07;4.93;;;4.05;;
22646;SDS011;11490;42.726;23.268;2023-02-01T17:13:35;7.35;;;4.75;;
22646;SDS011;11490;42.726;23.268;2023-02-01T17:16:02;6.20;;;3.58;;
22646;SDS011;11490;42.726;23.268;2023-02-01T17:18:40;6.32;;;4.28;;
22646;SDS011;11490;42.726;23.268;2023-02-01T17:21:05;4.93;;;4.07;;
22646;SDS011;11490;42.726;23.268;2023-02-01T17:23:31;7.97;;;4.95;;
22646;SDS011;11490;42.726;23.268;2023-02-01T17:25:57;13.35;;;5.80;;
22646;SDS011;11490;42.726;23.268;2023-02-01T17:28:23;9.20;;;5.90;;
22646;SDS011;11490;42.726;23.268;2023-02-01T17:30:49;7.60;;;4.22;;
22646;SDS011;11490;42.726;23.268;2023-02-01T17:33:20;6.32;;;4.00;;
22646;SDS011;11490;42.726;23.268;2023-02-01T17:35:48;4.82;;;3.53;;
22646;SDS011;11490;42.726;23.268;2023-02-01T17:38:14;4.57;;;3.90;;
22646;SDS011;11490;42.726;23.268;2023-02-01T17:40:40;3.65;;;3.20;;
22646;SDS011;11490;42.726;23.268;2023-02-01T17:43:08;3.63;;;3.17;;
22646;SDS011;11490;42.726;23.268;2023-02-01T17:45:47;9.77;;;4.40;;
22646;SDS011;11490;42.726;23.268;2023-02-01T17:48:17;7.60;;;4.00;;